sensor_id;sensor_type;location;lat;lon;timestamp;temperature;humidity
42421;DHT22;28063;48.140;11.588;2023-04-22T00:02:14;10.60;88.40
42421;DHT22;28063;48.140;11.588;2023-04-22T00:04:41;10.60;88.70
42421;DHT22;28063;48.140;11.588;2023-04-22T00:07:08;10.50;88.90
42421;DHT22;28063;48.140;11.588;2023-04-22T00:09:33;10.50;89.00
42421;DHT22;28063;48.140;11.588;2023-04-22T00:11:59;10.50;89.10
42421;DHT22;28063;48.140;11.588;2023-04-22T00:14:26;10.50;89.20
42421;DHT22;28063;48.140;11.588;2023-04-22T00:16:52;10.50;89.30
42421;DHT22;28063;48.140;11.588;2023-04-22T00:19:17;10.50;89.40
42421;DHT22;28063;48.140;11.588;2023-04-22T00:21:43;10.40;89.50
42421;DHT22;28063;48.140;11.588;2023-04-22T00:24:09;10.40;89.80
42421;DHT22;28063;48.140;11.588;2023-04-22T00:26:35;10.40;90.00
42421;DHT22;28063;48.140;11.588;2023-04-22T00:29:00;10.40;90.20
42421;DHT22;28063;48.140;11.588;2023-04-22T00:31:26;10.40;90.40
42421;DHT22;28063;48.140;11.588;2023-04-22T00:33:52;10.40;90.50
42421;DHT22;28063;48.140;11.588;2023-04-22T00:36:17;10.40;90.50
42421;DHT22;28063;48.140;11.588;2023-04-22T00:38:49;10.40;90.60
42421;DHT22;28063;48.140;11.588;2023-04-22T00:41:18;10.30;90.70
42421;DHT22;28063;48.140;11.588;2023-04-22T00:43:44;10.30;90.60
42421;DHT22;28063;48.140;11.588;2023-04-22T00:46:11;10.20;90.60
42421;DHT22;28063;48.140;11.588;2023-04-22T00:48:37;10.20;90.70
42421;DHT22;28063;48.140;11.588;2023-04-22T00:51:04;10.20;90.80
42421;DHT22;28063;48.140;11.588;2023-04-22T00:53:30;10.20;90.90
42421;DHT22;28063;48.140;11.588;2023-04-22T00:55:55;10.20;91.00
42421;DHT22;28063;48.140;11.588;2023-04-22T00:58:26;10.20;91.10
42421;DHT22;28063;48.140;11.588;2023-04-22T01:00:52;10.20;91.20
42421;DHT22;28063;48.140;11.588;2023-04-22T01:03:19;10.20;91.40
42421;DHT22;28063;48.140;11.588;2023-04-22T01:05:46;10.20;91.60
42421;DHT22;28063;48.140;11.588;2023-04-22T01:08:13;10.10;91.70
42421;DHT22;28063;48.140;11.588;2023-04-22T01:10:40;10.10;91.90
42421;DHT22;28063;48.140;11.588;2023-04-22T01:13:05;10.10;92.00
42421;DHT22;28063;48.140;11.588;2023-04-22T01:15:31;10.10;92.10
42421;DHT22;28063;48.140;11.588;2023-04-22T01:17:58;10.10;92.10
42421;DHT22;28063;48.140;11.588;2023-04-22T01:20:28;10.00;92.20
42421;DHT22;28063;48.140;11.588;2023-04-22T01:22:54;10.00;92.40
42421;DHT22;28063;48.140;11.588;2023-04-22T01:25:24;10.00;92.50
42421;DHT22;28063;48.140;11.588;2023-04-22T01:27:53;10.00;92.60
42421;DHT22;28063;48.140;11.588;2023-04-22T01:30:19;10.00;92.70
42421;DHT22;28063;48.140;11.588;2023-04-22T01:32:45;9.90;92.90
42421;DHT22;28063;48.140;11.588;2023-04-22T01:35:11;9.90;93.00
42421;DHT22;28063;48.140;11.588;2023-04-22T01:37:37;9.90;93.10
42421;DHT22;28063;48.140;11.588;2023-04-22T01:40:03;9.90;93.20
42421;DHT22;28063;48.140;11.588;2023-04-22T01:42:32;9.80;93.40
42421;DHT22;28063;48.140;11.588;2023-04-22T01:44:57;9.70;93.40
42421;DHT22;28063;48.140;11.588;2023-04-22T01:47:24;9.70;93.50
42421;DHT22;28063;48.140;11.588;2023-04-22T01:49:49;9.70;93.60
42421;DHT22;28063;48.140;11.588;2023-04-22T01:52:19;9.70;93.70
42421;DHT22;28063;48.140;11.588;2023-04-22T01:54:45;9.70;93.80
42421;DHT22;28063;48.140;11.588;2023-04-22T01:57:12;9.70;94.00
42421;DHT22;28063;48.140;11.588;2023-04-22T01:59:38;9.60;94.00
42421;DHT22;28063;48.140;11.588;2023-04-22T02:02:04;9.60;94.00
42421;DHT22;28063;48.140;11.588;2023-04-22T02:04:33;9.60;94.10
42421;DHT22;28063;48.140;11.588;2023-04-22T02:06:59;9.60;94.30
42421;DHT22;28063;48.140;11.588;2023-04-22T02:09:25;9.60;94.40
42421;DHT22;28063;48.140;11.588;2023-04-22T02:11:50;9.50;94.50
42421;DHT22;28063;48.140;11.588;2023-04-22T02:14:16;9.50;94.70
42421;DHT22;28063;48.140;11.588;2023-04-22T02:16:41;9.50;94.80
42421;DHT22;28063;48.140;11.588;2023-04-22T02:19:15;9.40;94.90
42421;DHT22;28063;48.140;11.588;2023-04-22T02:21:40;9.40;95.10
42421;DHT22;28063;48.140;11.588;2023-04-22T02:24:06;9.30;95.20
42421;DHT22;28063;48.140;11.588;2023-04-22T02:26:32;9.30;95.30
42421;DHT22;28063;48.140;11.588;2023-04-22T02:28:57;9.20;95.50
42421;DHT22;28063;48.140;11.588;2023-04-22T02:31:23;9.20;95.70
42421;DHT22;28063;48.140;11.588;2023-04-22T02:33:53;9.10;95.90
42421;DHT22;28063;48.140;11.588;2023-04-22T02:36:18;9.10;95.90
42421;DHT22;28063;48.140;11.588;2023-04-22T02:38:45;9.10;96.00
42421;DHT22;28063;48.140;11.588;2023-04-22T02:41:14;9.00;96.10
42421;DHT22;28063;48.140;11.588;2023-04-22T02:43:39;9.00;96.20
42421;DHT22;28063;48.140;11.588;2023-04-22T02:46:11;8.90;96.30
42421;DHT22;28063;48.140;11.588;2023-04-22T02:48:37;8.90;96.50
42421;DHT22;28063;48.140;11.588;2023-04-22T02:51:04;8.90;96.70
42421;DHT22;28063;48.140;11.588;2023-04-22T02:53:30;8.80;96.80
42421;DHT22;28063;48.140;11.588;2023-04-22T02:55:56;8.80;97.00
42421;DHT22;28063;48.140;11.588;2023-04-22T02:58:23;8.80;97.20
42421;DHT22;28063;48.140;11.588;2023-04-22T03:00:48;8.80;97.30
42421;DHT22;28063;48.140;11.588;2023-04-22T03:03:17;8.80;97.30
42421;DHT22;28063;48.140;11.588;2023-04-22T03:05:42;8.80;97.40
42421;DHT22;28063;48.140;11.588;2023-04-22T03:08:08;8.80;97.60
42421;DHT22;28063;48.140;11.588;2023-04-22T03:10:34;8.80;97.70
42421;DHT22;28063;48.140;11.588;2023-04-22T03:13:00;8.80;97.80
42421;DHT22;28063;48.140;11.588;2023-04-22T03:15:25;8.70;97.80
42421;DHT22;28063;48.140;11.588;2023-04-22T03:17:51;8.70;97.90
42421;DHT22;28063;48.140;11.588;2023-04-22T03:20:21;8.70;97.90
42421;DHT22;28063;48.140;11.588;2023-04-22T03:22:46;8.60;98.00
42421;DHT22;28063;48.140;11.588;2023-04-22T03:25:12;8.60;98.20
42421;DHT22;28063;48.140;11.588;2023-04-22T03:27:38;8.60;98.30
42421;DHT22;28063;48.140;11.588;2023-04-22T03:30:07;8.60;98.50
42421;DHT22;28063;48.140;11.588;2023-04-22T03:32:58;8.60;98.60
42421;DHT22;28063;48.140;11.588;2023-04-22T03:35:33;8.60;98.70
42421;DHT22;28063;48.140;11.588;2023-04-22T03:37:58;8.60;98.70
42421;DHT22;28063;48.140;11.588;2023-04-22T03:40:24;8.50;98.70
42421;DHT22;28063;48.140;11.588;2023-04-22T03:42:50;8.50;98.70
42421;DHT22;28063;48.140;11.588;2023-04-22T03:45:15;8.40;98.80
42421;DHT22;28063;48.140;11.588;2023-04-22T03:47:41;8.40;98.70
42421;DHT22;28063;48.140;11.588;2023-04-22T03:50:07;8.30;98.80
42421;DHT22;28063;48.140;11.588;2023-04-22T03:52:41;8.30;98.90
42421;DHT22;28063;48.140;11.588;2023-04-22T03:55:07;8.30;99.10
42421;DHT22;28063;48.140;11.588;2023-04-22T03:57:33;8.30;99.20
42421;DHT22;28063;48.140;11.588;2023-04-22T03:59:58;8.20;99.30
42421;DHT22;28063;48.140;11.588;2023-04-22T04:02:24;8.20;99.20
42421;DHT22;28063;48.140;11.588;2023-04-22T04:04:50;8.20;99.30
42421;DHT22;28063;48.140;11.588;2023-04-22T04:07:16;8.20;99.40
42421;DHT22;28063;48.140;11.588;2023-04-22T04:09:41;8.20;99.50
42421;DHT22;28063;48.140;11.588;2023-04-22T04:12:07;8.10;99.60
42421;DHT22;28063;48.140;11.588;2023-04-22T04:14:33;8.10;99.90
42421;DHT22;28063;48.140;11.588;2023-04-22T04:16:58;8.10;99.70
42421;DHT22;28063;48.140;11.588;2023-04-22T04:19:24;8.10;99.90
42421;DHT22;28063;48.140;11.588;2023-04-22T04:21:50;8.20;99.90
42421;DHT22;28063;48.140;11.588;2023-04-22T04:24:15;8.20;99.90
42421;DHT22;28063;48.140;11.588;2023-04-22T04:26:41;8.20;99.90
42421;DHT22;28063;48.140;11.588;2023-04-22T04:29:07;8.20;99.90
42421;DHT22;28063;48.140;11.588;2023-04-22T04:31:32;8.30;99.90
42421;DHT22;28063;48.140;11.588;2023-04-22T04:33:59;8.30;99.90
42421;DHT22;28063;48.140;11.588;2023-04-22T04:36:25;8.40;99.70
42421;DHT22;28063;48.140;11.588;2023-04-22T04:38:52;8.40;99.60
42421;DHT22;28063;48.140;11.588;2023-04-22T04:41:17;8.40;99.50
42421;DHT22;28063;48.140;11.588;2023-04-22T04:43:46;8.50;99.40
42421;DHT22;28063;48.140;11.588;2023-04-22T04:46:12;8.50;99.20
42421;DHT22;28063;48.140;11.588;2023-04-22T04:48:40;8.60;99.10
42421;DHT22;28063;48.140;11.588;2023-04-22T04:51:07;8.60;99.10
42421;DHT22;28063;48.140;11.588;2023-04-22T04:53:32;8.60;99.10
42421;DHT22;28063;48.140;11.588;2023-04-22T04:55:59;8.80;99.00
42421;DHT22;28063;48.140;11.588;2023-04-22T04:58:24;8.80;98.60
42421;DHT22;28063;48.140;11.588;2023-04-22T05:00:50;8.90;98.40
42421;DHT22;28063;48.140;11.588;2023-04-22T05:03:16;9.00;98.10
42421;DHT22;28063;48.140;11.588;2023-04-22T05:05:41;9.10;97.80
42421;DHT22;28063;48.140;11.588;2023-04-22T05:08:07;9.10;97.40
42421;DHT22;28063;48.140;11.588;2023-04-22T05:10:33;9.20;97.20
42421;DHT22;28063;48.140;11.588;2023-04-22T05:12:59;9.20;96.90
42421;DHT22;28063;48.140;11.588;2023-04-22T05:15:24;9.30;96.80
42421;DHT22;28063;48.140;11.588;2023-04-22T05:17:51;9.40;96.50
42421;DHT22;28063;48.140;11.588;2023-04-22T05:20:16;9.40;96.30
42421;DHT22;28063;48.140;11.588;2023-04-22T05:22:42;9.50;96.00
42421;DHT22;28063;48.140;11.588;2023-04-22T05:25:10;9.50;95.80
42421;DHT22;28063;48.140;11.588;2023-04-22T05:27:36;9.60;95.60
42421;DHT22;28063;48.140;11.588;2023-04-22T05:30:02;9.70;95.40
42421;DHT22;28063;48.140;11.588;2023-04-22T05:32:28;9.70;95.10
42421;DHT22;28063;48.140;11.588;2023-04-22T05:34:53;9.80;94.90
42421;DHT22;28063;48.140;11.588;2023-04-22T05:37:19;9.90;94.60
42421;DHT22;28063;48.140;11.588;2023-04-22T05:39:45;10.00;94.30
42421;DHT22;28063;48.140;11.588;2023-04-22T05:42:10;10.10;94.10
42421;DHT22;28063;48.140;11.588;2023-04-22T05:44:36;10.20;93.40
42421;DHT22;28063;48.140;11.588;2023-04-22T05:47:02;10.40;93.00
42421;DHT22;28063;48.140;11.588;2023-04-22T05:49:27;10.50;92.90
42421;DHT22;28063;48.140;11.588;2023-04-22T05:51:53;10.60;92.20
42421;DHT22;28063;48.140;11.588;2023-04-22T05:54:19;10.70;91.80
42421;DHT22;28063;48.140;11.588;2023-04-22T05:56:44;10.80;91.50
42421;DHT22;28063;48.140;11.588;2023-04-22T05:59:10;10.90;91.20
42421;DHT22;28063;48.140;11.588;2023-04-22T06:01:36;11.00;90.90
42421;DHT22;28063;48.140;11.588;2023-04-22T06:04:03;11.10;90.50
42421;DHT22;28063;48.140;11.588;2023-04-22T06:06:30;11.20;90.20
42421;DHT22;28063;48.140;11.588;2023-04-22T06:08:56;11.30;89.60
42421;DHT22;28063;48.140;11.588;2023-04-22T06:11:22;11.40;88.90
42421;DHT22;28063;48.140;11.588;2023-04-22T06:13:48;11.50;88.10
42421;DHT22;28063;48.140;11.588;2023-04-22T06:16:14;11.60;87.40
42421;DHT22;28063;48.140;11.588;2023-04-22T06:18:39;11.80;86.50
42421;DHT22;28063;48.140;11.588;2023-04-22T06:21:05;12.00;85.70
42421;DHT22;28063;48.140;11.588;2023-04-22T06:23:31;12.30;85.20
42421;DHT22;28063;48.140;11.588;2023-04-22T06:25:56;13.40;84.90
42421;DHT22;28063;48.140;11.588;2023-04-22T06:28:23;15.80;79.40
42421;DHT22;28063;48.140;11.588;2023-04-22T06:30:48;18.20;71.10
42421;DHT22;28063;48.140;11.588;2023-04-22T06:33:14;20.00;63.70
42421;DHT22;28063;48.140;11.588;2023-04-22T06:35:40;21.20;57.20
42421;DHT22;28063;48.140;11.588;2023-04-22T06:38:05;21.90;54.60
42421;DHT22;28063;48.140;11.588;2023-04-22T06:40:31;22.60;52.10
42421;DHT22;28063;48.140;11.588;2023-04-22T06:42:57;22.60;49.70
42421;DHT22;28063;48.140;11.588;2023-04-22T06:45:23;21.80;49.10
42421;DHT22;28063;48.140;11.588;2023-04-22T06:47:51;20.80;49.70
42421;DHT22;28063;48.140;11.588;2023-04-22T06:50:18;19.60;51.00
42421;DHT22;28063;48.140;11.588;2023-04-22T06:52:46;18.40;52.90
42421;DHT22;28063;48.140;11.588;2023-04-22T06:55:12;17.40;54.90
42421;DHT22;28063;48.140;11.588;2023-04-22T06:57:38;16.70;56.80
42421;DHT22;28063;48.140;11.588;2023-04-22T07:00:04;16.10;58.20
42421;DHT22;28063;48.140;11.588;2023-04-22T07:02:33;15.80;59.60
42421;DHT22;28063;48.140;11.588;2023-04-22T07:04:58;15.40;61.10
42421;DHT22;28063;48.140;11.588;2023-04-22T07:07:24;15.30;61.20
42421;DHT22;28063;48.140;11.588;2023-04-22T07:09:50;15.10;61.80
42421;DHT22;28063;48.140;11.588;2023-04-22T07:12:15;15.10;62.40
42421;DHT22;28063;48.140;11.588;2023-04-22T07:14:45;14.90;62.90
42421;DHT22;28063;48.140;11.588;2023-04-22T07:17:11;14.80;63.40
42421;DHT22;28063;48.140;11.588;2023-04-22T07:19:37;14.80;63.60
42421;DHT22;28063;48.140;11.588;2023-04-22T07:22:03;14.70;64.00
42421;DHT22;28063;48.140;11.588;2023-04-22T07:24:29;14.70;64.20
42421;DHT22;28063;48.140;11.588;2023-04-22T07:26:55;14.70;64.30
42421;DHT22;28063;48.140;11.588;2023-04-22T07:29:21;14.80;64.40
42421;DHT22;28063;48.140;11.588;2023-04-22T07:31:46;15.00;64.40
42421;DHT22;28063;48.140;11.588;2023-04-22T07:34:12;15.10;64.10
42421;DHT22;28063;48.140;11.588;2023-04-22T07:36:38;15.20;63.80
42421;DHT22;28063;48.140;11.588;2023-04-22T07:39:04;15.20;63.70
42421;DHT22;28063;48.140;11.588;2023-04-22T07:41:30;15.30;63.80
42421;DHT22;28063;48.140;11.588;2023-04-22T07:43:56;15.40;62.80
42421;DHT22;28063;48.140;11.588;2023-04-22T07:46:22;15.50;62.20
42421;DHT22;28063;48.140;11.588;2023-04-22T07:48:47;15.60;61.80
42421;DHT22;28063;48.140;11.588;2023-04-22T07:51:13;15.70;61.40
42421;DHT22;28063;48.140;11.588;2023-04-22T07:53:39;15.80;61.00
42421;DHT22;28063;48.140;11.588;2023-04-22T07:56:04;15.90;60.60
42421;DHT22;28063;48.140;11.588;2023-04-22T07:58:30;16.10;60.20
42421;DHT22;28063;48.140;11.588;2023-04-22T08:00:56;16.20;59.70
42421;DHT22;28063;48.140;11.588;2023-04-22T08:03:22;16.30;58.90
42421;DHT22;28063;48.140;11.588;2023-04-22T08:05:47;16.40;58.40
42421;DHT22;28063;48.140;11.588;2023-04-22T08:08:13;16.60;58.10
42421;DHT22;28063;48.140;11.588;2023-04-22T08:10:39;16.70;57.50
42421;DHT22;28063;48.140;11.588;2023-04-22T08:13:05;16.90;57.30
42421;DHT22;28063;48.140;11.588;2023-04-22T08:15:31;17.00;57.10
42421;DHT22;28063;48.140;11.588;2023-04-22T08:17:56;17.20;56.90
42421;DHT22;28063;48.140;11.588;2023-04-22T08:20:23;17.20;56.40
42421;DHT22;28063;48.140;11.588;2023-04-22T08:22:50;17.20;56.10
42421;DHT22;28063;48.140;11.588;2023-04-22T08:25:17;17.30;56.10
42421;DHT22;28063;48.140;11.588;2023-04-22T08:27:43;17.40;56.10
42421;DHT22;28063;48.140;11.588;2023-04-22T08:30:08;17.70;55.60
42421;DHT22;28063;48.140;11.588;2023-04-22T08:32:34;17.90;54.70
42421;DHT22;28063;48.140;11.588;2023-04-22T08:35:00;18.10;53.90
42421;DHT22;28063;48.140;11.588;2023-04-22T08:37:26;18.20;54.00
42421;DHT22;28063;48.140;11.588;2023-04-22T08:39:52;18.30;53.90
42421;DHT22;28063;48.140;11.588;2023-04-22T08:42:19;18.50;53.70
42421;DHT22;28063;48.140;11.588;2023-04-22T08:44:47;18.70;53.10
42421;DHT22;28063;48.140;11.588;2023-04-22T08:47:14;19.00;52.40
42421;DHT22;28063;48.140;11.588;2023-04-22T08:49:41;19.10;51.90
42421;DHT22;28063;48.140;11.588;2023-04-22T08:52:08;19.30;52.00
42421;DHT22;28063;48.140;11.588;2023-04-22T08:54:35;19.40;51.70
42421;DHT22;28063;48.140;11.588;2023-04-22T08:57:04;19.50;51.20
42421;DHT22;28063;48.140;11.588;2023-04-22T08:59:30;19.60;50.80
42421;DHT22;28063;48.140;11.588;2023-04-22T09:01:56;19.70;50.50
42421;DHT22;28063;48.140;11.588;2023-04-22T09:04:23;19.60;50.10
42421;DHT22;28063;48.140;11.588;2023-04-22T09:06:49;19.40;50.00
42421;DHT22;28063;48.140;11.588;2023-04-22T09:09:14;19.40;50.10
42421;DHT22;28063;48.140;11.588;2023-04-22T09:11:40;19.30;50.00
42421;DHT22;28063;48.140;11.588;2023-04-22T09:14:06;19.30;49.80
42421;DHT22;28063;48.140;11.588;2023-04-22T09:16:33;19.40;50.30
42421;DHT22;28063;48.140;11.588;2023-04-22T09:19:04;19.60;50.20
42421;DHT22;28063;48.140;11.588;2023-04-22T09:21:32;19.80;49.60
42421;DHT22;28063;48.140;11.588;2023-04-22T09:23:59;19.90;49.50
42421;DHT22;28063;48.140;11.588;2023-04-22T09:26:27;20.00;48.90
42421;DHT22;28063;48.140;11.588;2023-04-22T09:28:54;20.00;49.50
42421;DHT22;28063;48.140;11.588;2023-04-22T09:31:23;20.20;48.80
42421;DHT22;28063;48.140;11.588;2023-04-22T09:33:59;20.40;48.60
42421;DHT22;28063;48.140;11.588;2023-04-22T09:36:26;20.70;48.30
42421;DHT22;28063;48.140;11.588;2023-04-22T09:38:57;20.80;47.90
42421;DHT22;28063;48.140;11.588;2023-04-22T09:41:32;20.80;47.70
42421;DHT22;28063;48.140;11.588;2023-04-22T09:43:59;21.00;47.80
42421;DHT22;28063;48.140;11.588;2023-04-22T09:46:26;21.20;47.40
42421;DHT22;28063;48.140;11.588;2023-04-22T09:48:54;21.20;47.50
42421;DHT22;28063;48.140;11.588;2023-04-22T09:51:20;21.30;48.30
42421;DHT22;28063;48.140;11.588;2023-04-22T09:54:09;21.50;47.60
42421;DHT22;28063;48.140;11.588;2023-04-22T09:56:46;21.40;47.10
42421;DHT22;28063;48.140;11.588;2023-04-22T09:59:27;21.40;47.40
42421;DHT22;28063;48.140;11.588;2023-04-22T10:01:56;21.40;46.90
42421;DHT22;28063;48.140;11.588;2023-04-22T10:04:22;21.40;47.00
42421;DHT22;28063;48.140;11.588;2023-04-22T10:06:53;21.60;46.70
42421;DHT22;28063;48.140;11.588;2023-04-22T10:09:20;21.70;47.10
42421;DHT22;28063;48.140;11.588;2023-04-22T10:11:48;21.80;47.60
42421;DHT22;28063;48.140;11.588;2023-04-22T10:14:14;22.10;47.30
42421;DHT22;28063;48.140;11.588;2023-04-22T10:16:42;22.10;46.40
42421;DHT22;28063;48.140;11.588;2023-04-22T10:19:13;21.80;47.00
42421;DHT22;28063;48.140;11.588;2023-04-22T10:21:41;21.60;47.80
42421;DHT22;28063;48.140;11.588;2023-04-22T10:24:17;21.60;47.90
42421;DHT22;28063;48.140;11.588;2023-04-22T10:26:52;21.70;47.50
42421;DHT22;28063;48.140;11.588;2023-04-22T10:29:20;21.70;47.40
42421;DHT22;28063;48.140;11.588;2023-04-22T10:32:02;21.70;47.50
42421;DHT22;28063;48.140;11.588;2023-04-22T10:34:29;22.00;47.50
42421;DHT22;28063;48.140;11.588;2023-04-22T10:37:12;22.20;46.80
42421;DHT22;28063;48.140;11.588;2023-04-22T10:39:39;22.40;46.30
42421;DHT22;28063;48.140;11.588;2023-04-22T10:42:11;22.50;46.10
42421;DHT22;28063;48.140;11.588;2023-04-22T10:44:54;22.90;45.90
42421;DHT22;28063;48.140;11.588;2023-04-22T10:47:35;22.90;45.10
42421;DHT22;28063;48.140;11.588;2023-04-22T10:50:30;23.00;45.00
42421;DHT22;28063;48.140;11.588;2023-04-22T10:53:00;23.30;44.70
42421;DHT22;28063;48.140;11.588;2023-04-22T10:55:52;23.40;44.00
42421;DHT22;28063;48.140;11.588;2023-04-22T10:58:23;23.50;43.20
42421;DHT22;28063;48.140;11.588;2023-04-22T11:00:51;23.50;43.10
42421;DHT22;28063;48.140;11.588;2023-04-22T11:03:27;23.40;43.20
42421;DHT22;28063;48.140;11.588;2023-04-22T11:06:15;23.40;42.70
42421;DHT22;28063;48.140;11.588;2023-04-22T11:08:46;23.40;42.80
42421;DHT22;28063;48.140;11.588;2023-04-22T11:11:12;23.60;42.50
42421;DHT22;28063;48.140;11.588;2023-04-22T11:13:41;23.80;41.70
42421;DHT22;28063;48.140;11.588;2023-04-22T11:16:08;23.70;41.70
42421;DHT22;28063;48.140;11.588;2023-04-22T11:18:34;23.50;41.90
42421;DHT22;28063;48.140;11.588;2023-04-22T11:21:06;23.50;42.00
42421;DHT22;28063;48.140;11.588;2023-04-22T11:23:36;23.60;41.50
42421;DHT22;28063;48.140;11.588;2023-04-22T11:26:06;23.80;41.30
42421;DHT22;28063;48.140;11.588;2023-04-22T11:28:32;24.00;41.10
42421;DHT22;28063;48.140;11.588;2023-04-22T11:31:08;24.20;40.80
42421;DHT22;28063;48.140;11.588;2023-04-22T11:33:37;24.10;40.00
42421;DHT22;28063;48.140;11.588;2023-04-22T11:36:04;24.20;40.20
42421;DHT22;28063;48.140;11.588;2023-04-22T11:38:30;24.10;39.60
42421;DHT22;28063;48.140;11.588;2023-04-22T11:40:56;23.90;39.70
42421;DHT22;28063;48.140;11.588;2023-04-22T11:43:23;23.80;40.00
42421;DHT22;28063;48.140;11.588;2023-04-22T11:45:48;23.80;40.50
42421;DHT22;28063;48.140;11.588;2023-04-22T11:48:14;23.80;40.70
42421;DHT22;28063;48.140;11.588;2023-04-22T11:50:42;23.90;40.60
42421;DHT22;28063;48.140;11.588;2023-04-22T11:53:16;24.10;40.30
42421;DHT22;28063;48.140;11.588;2023-04-22T11:55:43;24.40;39.40
42421;DHT22;28063;48.140;11.588;2023-04-22T11:58:11;24.50;39.10
42421;DHT22;28063;48.140;11.588;2023-04-22T12:03:17;24.40;38.90
42421;DHT22;28063;48.140;11.588;2023-04-22T12:08:23;24.10;40.20
42421;DHT22;28063;48.140;11.588;2023-04-22T12:10:57;24.30;40.50
42421;DHT22;28063;48.140;11.588;2023-04-22T12:13:43;24.30;40.60
42421;DHT22;28063;48.140;11.588;2023-04-22T12:16:14;24.60;40.60
42421;DHT22;28063;48.140;11.588;2023-04-22T12:18:50;24.70;40.10
42421;DHT22;28063;48.140;11.588;2023-04-22T12:21:19;24.80;39.90
42421;DHT22;28063;48.140;11.588;2023-04-22T12:23:53;24.80;39.30
42421;DHT22;28063;48.140;11.588;2023-04-22T12:26:21;24.80;38.80
42421;DHT22;28063;48.140;11.588;2023-04-22T12:28:49;24.60;39.00
42421;DHT22;28063;48.140;11.588;2023-04-22T12:31:15;24.50;39.40
42421;DHT22;28063;48.140;11.588;2023-04-22T12:37:03;24.80;38.70
42421;DHT22;28063;48.140;11.588;2023-04-22T12:39:29;25.00;38.40
42421;DHT22;28063;48.140;11.588;2023-04-22T12:41:54;24.80;38.80
42421;DHT22;28063;48.140;11.588;2023-04-22T12:44:22;24.50;39.50
42421;DHT22;28063;48.140;11.588;2023-04-22T12:46:47;24.40;40.00
42421;DHT22;28063;48.140;11.588;2023-04-22T12:49:13;24.20;40.00
42421;DHT22;28063;48.140;11.588;2023-04-22T12:51:39;24.30;40.40
42421;DHT22;28063;48.140;11.588;2023-04-22T12:54:04;24.50;40.10
42421;DHT22;28063;48.140;11.588;2023-04-22T12:56:30;24.50;39.30
42421;DHT22;28063;48.140;11.588;2023-04-22T12:58:56;24.50;40.20
42421;DHT22;28063;48.140;11.588;2023-04-22T13:01:28;24.50;40.80
42421;DHT22;28063;48.140;11.588;2023-04-22T13:03:53;24.30;41.60
42421;DHT22;28063;48.140;11.588;2023-04-22T13:06:19;24.10;42.50
42421;DHT22;28063;48.140;11.588;2023-04-22T13:08:45;24.10;42.70
42421;DHT22;28063;48.140;11.588;2023-04-22T13:11:10;24.30;42.60
42421;DHT22;28063;48.140;11.588;2023-04-22T13:13:36;24.40;41.90
42421;DHT22;28063;48.140;11.588;2023-04-22T13:16:02;24.50;41.70
42421;DHT22;28063;48.140;11.588;2023-04-22T13:18:27;24.50;41.60
42421;DHT22;28063;48.140;11.588;2023-04-22T13:20:54;24.30;42.00
42421;DHT22;28063;48.140;11.588;2023-04-22T13:26:45;24.10;41.90
42421;DHT22;28063;48.140;11.588;2023-04-22T13:29:11;24.20;41.70
42421;DHT22;28063;48.140;11.588;2023-04-22T13:31:42;24.30;41.50
42421;DHT22;28063;48.140;11.588;2023-04-22T13:34:10;24.40;41.20
42421;DHT22;28063;48.140;11.588;2023-04-22T13:36:35;24.60;41.10
42421;DHT22;28063;48.140;11.588;2023-04-22T13:39:01;24.60;41.30
42421;DHT22;28063;48.140;11.588;2023-04-22T13:41:27;24.50;40.90
42421;DHT22;28063;48.140;11.588;2023-04-22T13:43:52;24.50;40.90
42421;DHT22;28063;48.140;11.588;2023-04-22T13:46:20;24.40;41.40
42421;DHT22;28063;48.140;11.588;2023-04-22T13:48:47;24.30;41.10
42421;DHT22;28063;48.140;11.588;2023-04-22T13:51:13;24.30;41.30
42421;DHT22;28063;48.140;11.588;2023-04-22T13:53:39;24.50;41.20
42421;DHT22;28063;48.140;11.588;2023-04-22T13:56:05;24.70;41.00
42421;DHT22;28063;48.140;11.588;2023-04-22T13:58:30;24.70;40.50
42421;DHT22;28063;48.140;11.588;2023-04-22T14:00:56;24.60;40.20
42421;DHT22;28063;48.140;11.588;2023-04-22T14:03:23;24.50;40.20
42421;DHT22;28063;48.140;11.588;2023-04-22T14:05:49;24.50;40.30
42421;DHT22;28063;48.140;11.588;2023-04-22T14:08:14;24.50;40.10
42421;DHT22;28063;48.140;11.588;2023-04-22T14:10:40;24.60;40.30
42421;DHT22;28063;48.140;11.588;2023-04-22T14:13:06;24.70;40.60
42421;DHT22;28063;48.140;11.588;2023-04-22T14:15:31;24.60;40.40
42421;DHT22;28063;48.140;11.588;2023-04-22T14:17:57;24.60;41.10
42421;DHT22;28063;48.140;11.588;2023-04-22T14:20:23;24.70;41.20
42421;DHT22;28063;48.140;11.588;2023-04-22T14:22:51;24.70;41.40
42421;DHT22;28063;48.140;11.588;2023-04-22T14:25:17;24.80;41.40
42421;DHT22;28063;48.140;11.588;2023-04-22T14:27:43;24.80;41.80
42421;DHT22;28063;48.140;11.588;2023-04-22T14:30:09;24.80;41.70
42421;DHT22;28063;48.140;11.588;2023-04-22T14:43:15;24.60;42.10
42421;DHT22;28063;48.140;11.588;2023-04-22T14:45:41;24.60;41.90
42421;DHT22;28063;48.140;11.588;2023-04-22T14:48:14;24.60;41.90
42421;DHT22;28063;48.140;11.588;2023-04-22T14:51:26;24.70;41.80
42421;DHT22;28063;48.140;11.588;2023-04-22T14:53:53;24.50;41.60
42421;DHT22;28063;48.140;11.588;2023-04-22T14:56:19;24.10;42.40
42421;DHT22;28063;48.140;11.588;2023-04-22T14:58:45;24.10;43.00
42421;DHT22;28063;48.140;11.588;2023-04-22T15:01:31;23.90;43.10
42421;DHT22;28063;48.140;11.588;2023-04-22T15:04:28;23.60;44.00
42421;DHT22;28063;48.140;11.588;2023-04-22T15:07:43;23.50;44.40
42421;DHT22;28063;48.140;11.588;2023-04-22T15:10:37;23.70;43.90
42421;DHT22;28063;48.140;11.588;2023-04-22T15:13:03;23.90;43.20
42421;DHT22;28063;48.140;11.588;2023-04-22T15:15:57;23.90;43.00
42421;DHT22;28063;48.140;11.588;2023-04-22T15:18:42;24.00;42.90
42421;DHT22;28063;48.140;11.588;2023-04-22T15:25:04;23.60;42.60
42421;DHT22;28063;48.140;11.588;2023-04-22T15:31:21;23.10;43.80
42421;DHT22;28063;48.140;11.588;2023-04-22T15:33:47;23.10;43.50
42421;DHT22;28063;48.140;11.588;2023-04-22T15:36:33;23.10;43.70
42421;DHT22;28063;48.140;11.588;2023-04-22T15:39:11;23.00;44.20
42421;DHT22;28063;48.140;11.588;2023-04-22T15:42:06;23.10;44.40
42421;DHT22;28063;48.140;11.588;2023-04-22T15:44:46;23.10;44.00
42421;DHT22;28063;48.140;11.588;2023-04-22T15:47:34;23.20;43.90
42421;DHT22;28063;48.140;11.588;2023-04-22T15:50:17;23.30;43.80
42421;DHT22;28063;48.140;11.588;2023-04-22T15:53:02;23.20;43.40
42421;DHT22;28063;48.140;11.588;2023-04-22T15:55:41;23.00;43.70
42421;DHT22;28063;48.140;11.588;2023-04-22T16:02:45;22.90;44.40